Time;durP1;ratioP1;P1;durP2;ratioP2;P2;SDS_P1;SDS_P2;PMS_P1;PMS_P2;Temp;Humidity;BMP_temperature;BMP_pressure;BME280_temperature;BME280_humidity;BME280_pressure;Samples;Min_cycle;Max_cycle;Signal;HPM_P1;HPM_P2
2022/08/05 00:00:59;;;;;;;11.85;4.10;;;17.80;99.90;;;;;;5000284;28;20078;-51
2022/08/05 00:03:24;;;;;;;8.43;4.15;;;17.10;99.90;;;;;;5015627;28;20409;-47
2022/08/05 00:05:50;;;;;;;11.35;4.10;;;15.30;99.90;;;;;;5015543;28;20033;-49
2022/08/05 00:08:16;;;;;;;9.07;3.97;;;17.20;99.90;;;;;;5015363;28;20723;-50
2022/08/05 00:10:41;;;;;;;10.43;3.95;;;17.20;99.90;;;;;;5016112;28;20099;-49
2022/08/05 00:13:07;;;;;;;10.75;3.25;;;17.00;99.90;;;;;;5014994;28;20041;-48
2022/08/05 00:15:33;;;;;;;11.52;3.30;;;18.60;99.90;;;;;;5013360;28;20049;-48
2022/08/05 00:18:00;;;;;;;8.88;3.55;;;17.80;99.90;;;;;;5013285;28;20489;-46
2022/08/05 00:20:26;;;;;;;11.88;3.60;;;18.20;99.90;;;;;;4996705;28;20324;-50
2022/08/05 00:22:52;;;;;;;10.60;3.53;;;17.10;99.90;;;;;;5013758;28;20228;-49
2022/08/05 00:25:19;;;;;;;10.57;3.95;;;17.20;99.90;;;;;;5015114;28;20057;-49
2022/08/05 00:27:45;;;;;;;9.07;3.63;;;18.00;99.90;;;;;;5015903;28;20046;-50
2022/08/05 00:30:11;;;;;;;10.55;3.50;;;17.00;99.90;;;;;;5017198;28;20409;-49
2022/08/05 00:32:37;;;;;;;6.85;3.83;;;17.20;99.90;;;;;;5016048;28;20084;-49
2022/08/05 00:35:02;;;;;;;8.80;3.47;;;17.90;99.90;;;;;;5016799;28;20145;-50
2022/08/05 00:37:28;;;;;;;10.50;3.63;;;17.00;99.90;;;;;;5015628;28;20046;-50
2022/08/05 00:39:54;;;;;;;10.18;3.28;;;18.00;99.90;;;;;;5016322;28;20536;-49
2022/08/05 00:42:40;;;;;;;10.75;3.85;;;16.80;99.90;;;;;;5015723;28;20604;-46
2022/08/05 00:45:07;;;;;;;10.20;4.15;;;16.70;99.90;;;;;;5015113;28;20115;-48
2022/08/05 00:47:33;;;;;;;8.82;3.30;;;17.00;99.90;;;;;;5014415;28;20052;-46
2022/08/05 00:49:59;;;;;;;13.15;4.40;;;16.90;99.90;;;;;;5015568;28;20041;-48
2022/08/05 00:52:25;;;;;;;11.63;4.15;;;17.80;99.90;;;;;;5016391;28;20042;-48
2022/08/05 00:54:50;;;;;;;9.77;4.30;;;17.50;99.90;;;;;;5013158;28;20033;-48
2022/08/05 00:57:16;;;;;;;9.68;3.83;;;19.10;99.90;;;;;;5013308;28;20274;-48
2022/08/05 00:59:44;;;;;;;10.77;4.18;;;17.80;99.90;;;;;;5015569;28;20108;-48
2022/08/05 01:02:09;;;;;;;6.30;3.60;;;17.00;99.90;;;;;;5015824;28;20033;-48
2022/08/05 01:04:35;;;;;;;8.00;3.70;;;17.00;99.90;;;;;;4998763;28;20048;-48
2022/08/05 01:07:01;;;;;;;11.90;3.70;;;16.90;99.90;;;;;;5015685;28;20440;-47
2022/08/05 01:09:28;;;;;;;10.15;4.03;;;17.00;99.90;;;;;;5015941;28;20033;-48
2022/08/05 01:12:01;;;;;;;9.43;4.13;;;17.70;99.90;;;;;;5013423;28;20068;-50
2022/08/05 01:14:43;;;;;;;8.73;3.65;;;18.00;99.90;;;;;;5014727;28;20033;-48
2022/08/05 01:17:13;;;;;;;8.52;3.55;;;16.80;99.90;;;;;;5014197;28;20328;-47
2022/08/05 01:19:44;;;;;;;7.53;3.83;;;16.80;99.90;;;;;;5014470;28;20045;-47
2022/08/05 01:22:17;;;;;;;8.63;3.47;;;16.90;99.90;;;;;;4997353;28;20608;-46
2022/08/05 01:24:48;;;;;;;6.82;4.20;;;17.70;99.90;;;;;;5015473;28;20041;-48
2022/08/05 01:27:35;;;;;;;9.55;3.10;;;16.90;99.90;;;;;;5015065;28;20105;-48
2022/08/05 01:30:04;;;;;;;9.07;4.50;;;16.70;99.90;;;;;;5014353;28;20049;-47
2022/08/05 01:32:34;;;;;;;7.47;3.40;;;16.90;99.90;;;;;;5014300;28;20049;-50
2022/08/05 01:35:08;;;;;;;10.80;3.80;;;19.00;99.90;;;;;;5012874;28;20088;-49
2022/08/05 01:37:52;;;;;;;5.78;2.83;;;16.80;99.90;;;;;;5014537;28;20528;-49
2022/08/05 01:40:20;;;;;;;9.88;3.72;;;16.80;99.90;;;;;;5014878;28;20048;-46
2022/08/05 01:42:49;;;;;;;7.30;3.60;;;18.30;99.90;;;;;;5013091;28;20077;-46
2022/08/05 01:45:16;;;;;;;6.22;3.45;;;16.80;99.90;;;;;;5013731;28;20442;-49
2022/08/05 01:47:43;;;;;;;7.68;3.67;;;16.80;99.90;;;;;;4997791;28;20046;-48
2022/08/05 01:50:27;;;;;;;8.93;3.20;;;16.80;99.90;;;;;;5015401;28;20536;-49
2022/08/05 01:52:57;;;;;;;8.00;3.13;;;17.00;99.90;;;;;;4996128;28;20073;-49
2022/08/05 01:55:27;;;;;;;7.53;4.40;;;18.20;99.90;;;;;;4997899;28;20550;-50
2022/08/05 01:57:54;;;;;;;9.70;3.47;;;16.80;99.90;;;;;;4996717;28;20046;-48
2022/08/05 02:00:20;;;;;;;7.85;3.50;;;19.00;99.90;;;;;;5015283;28;20409;-49
2022/08/05 02:02:55;;;;;;;9.05;3.60;;;18.70;99.90;;;;;;5014058;28;20048;-50
2022/08/05 02:05:26;;;;;;;9.50;3.20;;;18.30;99.90;;;;;;5012917;28;20489;-48
2022/08/05 02:07:55;;;;;;;8.03;3.60;;;16.90;99.90;;;;;;5014877;28;20084;-48
2022/08/05 02:10:21;;;;;;;5.03;3.13;;;17.80;99.90;;;;;;5012682;28;20090;-49
2022/08/05 02:12:55;;;;;;;7.82;4.20;;;16.70;99.90;;;;;;5012858;28;20041;-45
2022/08/05 02:15:23;;;;;;;6.68;3.78;;;16.70;99.90;;;;;;5012695;28;20157;-47
2022/08/05 02:18:03;;;;;;;7.97;3.55;;;18.10;99.90;;;;;;5012175;28;21262;-47
2022/08/05 02:20:34;;;;;;;6.93;3.63;;;16.60;99.90;;;;;;5013465;28;20128;-48
2022/08/05 02:23:09;;;;;;;7.10;3.72;;;16.50;99.90;;;;;;4995402;28;20041;-48
2022/08/05 02:25:38;;;;;;;8.45;3.70;;;16.60;99.90;;;;;;5013543;28;20044;-48
2022/08/05 02:28:06;;;;;;;8.68;4.25;;;18.40;99.90;;;;;;5014473;28;20052;-49
2022/08/05 02:30:41;;;;;;;12.30;4.55;;;16.80;99.90;;;;;;5013909;28;20069;-47
2022/08/05 02:33:10;;;;;;;7.30;4.18;;;17.70;99.90;;;;;;5014476;28;20399;-48
2022/08/05 02:35:37;;;;;;;7.78;4.00;;;18.60;99.90;;;;;;5012196;28;20091;-47
2022/08/05 02:38:03;;;;;;;9.05;4.28;;;16.60;99.90;;;;;;4994918;28;20457;-45
2022/08/05 02:40:31;;;;;;;8.82;4.20;;;17.10;99.90;;;;;;5011938;28;20409;-50
2022/08/05 02:42:59;;;;;;;8.77;4.00;;;16.70;99.90;;;;;;5012808;28;20045;-46
2022/08/05 02:45:27;;;;;;;9.38;4.57;;;16.70;99.90;;;;;;5012912;28;20041;-46
2022/08/05 02:47:56;;;;;;;10.52;4.60;;;16.50;99.90;;;;;;5012472;28;20042;-45
2022/08/05 02:50:25;;;;;;;7.50;4.40;;;18.40;99.90;;;;;;5012132;28;20594;-46
2022/08/05 02:52:51;;;;;;;11.18;5.03;;;16.50;99.90;;;;;;5014479;28;20053;-49
2022/08/05 02:55:17;;;;;;;12.93;5.07;;;16.50;99.90;;;;;;4978962;28;20451;-46
2022/08/05 02:57:45;;;;;;;7.90;4.30;;;16.40;99.90;;;;;;5012701;28;20076;-48
2022/08/05 03:00:12;;;;;;;9.88;4.13;;;16.80;99.90;;;;;;5014793;28;20598;-48
2022/08/05 03:02:39;;;;;;;11.15;4.80;;;16.50;99.90;;;;;;5011501;28;20225;-46
2022/08/05 03:05:08;;;;;;;9.90;4.53;;;16.80;99.90;;;;;;5012368;28;20744;-46
2022/08/05 03:07:35;;;;;;;8.68;4.70;;;16.50;99.90;;;;;;5011783;28;20684;-46
2022/08/05 03:10:01;;;;;;;10.82;5.00;;;16.50;99.90;;;;;;4996100;28;20065;-48
2022/08/05 03:12:36;;;;;;;11.90;4.80;;;16.70;99.90;;;;;;5012736;28;20076;-45
2022/08/05 03:15:06;;;;;;;9.25;5.03;;;16.40;99.90;;;;;;5012847;28;20038;-49
2022/08/05 03:17:32;;;;;;;9.93;4.43;;;16.30;99.90;;;;;;5013315;28;20076;-49
2022/08/05 03:19:58;;;;;;;7.18;4.97;;;16.30;99.90;;;;;;5012767;28;20524;-46
2022/08/05 03:22:25;;;;;;;12.45;5.15;;;16.60;99.90;;;;;;5012671;28;20038;-47
2022/08/05 03:24:52;;;;;;;7.60;4.75;;;16.20;99.90;;;;;;5012192;28;20434;-46
2022/08/05 03:27:19;;;;;;;8.63;5.32;;;16.10;99.90;;;;;;5011813;28;20045;-49
2022/08/05 03:29:47;;;;;;;9.40;5.60;;;17.10;99.90;;;;;;5011468;28;20038;-50
2022/08/05 03:32:14;;;;;;;8.77;5.07;;;16.10;99.90;;;;;;5011678;28;20091;-48
2022/08/05 03:34:40;;;;;;;11.25;5.40;;;16.30;99.90;;;;;;5012279;28;20041;-45
2022/08/05 03:37:08;;;;;;;10.70;5.72;;;16.10;99.90;;;;;;5012882;28;20041;-46
2022/08/05 03:39:34;;;;;;;11.48;4.68;;;16.50;99.90;;;;;;5012307;28;20045;-45
2022/08/05 03:41:59;;;;;;;8.45;4.35;;;16.20;99.90;;;;;;5011716;28;20466;-45
2022/08/05 03:44:27;;;;;;;9.77;4.93;;;17.60;99.90;;;;;;5012038;28;20137;-47
2022/08/05 03:46:53;;;;;;;9.98;5.60;;;16.00;99.90;;;;;;5009540;28;20159;-47
2022/08/05 03:49:18;;;;;;;7.53;4.60;;;16.00;99.90;;;;;;5010663;28;20045;-46
2022/08/05 03:51:57;;;;;;;10.27;5.53;;;15.70;99.90;;;;;;5012763;28;20124;-47
2022/08/05 03:54:38;;;;;;;8.30;5.28;;;16.00;99.90;;;;;;5012882;28;20300;-47
2022/08/05 03:57:08;;;;;;;12.93;5.32;;;15.90;99.90;;;;;;4995134;28;20060;-48
2022/08/05 03:59:40;;;;;;;9.65;5.78;;;15.80;99.90;;;;;;5012665;28;20056;-49
2022/08/05 04:02:07;;;;;;;9.63;5.85;;;17.50;99.90;;;;;;5012849;28;20033;-48
2022/08/05 04:04:34;;;;;;;8.00;5.85;;;18.00;99.90;;;;;;5012541;28;20064;-47
2022/08/05 04:07:01;;;;;;;10.82;6.13;;;16.60;99.90;;;;;;5011456;28;20434;-49
2022/08/05 04:09:28;;;;;;;9.43;5.70;;;15.80;99.90;;;;;;5012134;28;20095;-49
2022/08/05 04:11:56;;;;;;;9.25;5.60;;;15.90;99.90;;;;;;5012039;28;20093;-44
2022/08/05 04:14:23;;;;;;;10.95;5.50;;;16.00;99.90;;;;;;5011402;28;20065;-44
2022/08/05 04:16:51;;;;;;;10.38;5.70;;;15.80;99.90;;;;;;4996616;28;20137;-45
2022/08/05 04:19:16;;;;;;;8.38;5.70;;;15.80;99.90;;;;;;4994014;28;21436;-46
2022/08/05 04:21:42;;;;;;;12.18;5.43;;;15.70;99.90;;;;;;5012932;28;20406;-45
2022/08/05 04:24:08;;;;;;;9.63;5.35;;;15.80;99.90;;;;;;5011943;28;20041;-44
2022/08/05 04:26:33;;;;;;;7.93;4.68;;;15.80;99.90;;;;;;5012306;28;20041;-46
2022/08/05 04:29:00;;;;;;;11.95;6.00;;;16.50;99.90;;;;;;5012515;28;20085;-48
2022/08/05 04:31:26;;;;;;;13.07;6.32;;;16.70;99.90;;;;;;5016675;28;20038;-45
2022/08/05 04:33:51;;;;;;;9.77;6.20;;;16.30;99.90;;;;;;5015695;28;20060;-44
2022/08/05 04:36:17;;;;;;;8.35;5.68;;;17.80;99.90;;;;;;5015167;28;20141;-47
2022/08/05 04:38:45;;;;;;;8.45;5.68;;;17.90;99.90;;;;;;5015607;28;20052;-47
2022/08/05 04:41:11;;;;;;;9.20;6.45;;;15.60;99.90;;;;;;5016826;28;20060;-45
2022/08/05 04:43:38;;;;;;;7.45;5.10;;;15.60;99.90;;;;;;5015669;28;20037;-47
2022/08/05 04:46:05;;;;;;;11.95;5.10;;;15.60;99.90;;;;;;5014596;28;20041;-48
2022/08/05 04:48:31;;;;;;;10.30;4.93;;;17.00;99.90;;;;;;5015293;28;20041;-47
2022/08/05 04:50:57;;;;;;;14.27;5.90;;;17.70;99.90;;;;;;5015006;28;20290;-47
2022/08/05 04:53:23;;;;;;;7.97;5.18;;;16.20;99.90;;;;;;5015433;28;20120;-46
2022/08/05 04:55:48;;;;;;;7.53;5.00;;;16.00;99.90;;;;;;5015112;28;20034;-44
2022/08/05 04:58:16;;;;;;;8.90;4.75;;;15.80;99.90;;;;;;5013470;28;20076;-48
2022/08/05 05:00:44;;;;;;;8.40;4.53;;;15.90;99.90;;;;;;5014440;28;20042;-46
2022/08/05 05:03:10;;;;;;;9.10;4.47;;;15.90;99.90;;;;;;5013687;28;20045;-45
2022/08/05 05:05:37;;;;;;;8.20;4.90;;;16.00;99.90;;;;;;5013448;28;20042;-45
2022/08/05 05:08:05;;;;;;;9.02;5.07;;;15.80;99.90;;;;;;5015196;28;20045;-48
2022/08/05 05:10:36;;;;;;;9.88;4.70;;;16.10;99.90;;;;;;5015249;28;20068;-45
2022/08/05 05:13:02;;;;;;;7.28;4.97;;;16.50;99.90;;;;;;5013672;28;20053;-45
2022/08/05 05:15:27;;;;;;;9.60;4.70;;;16.10;99.90;;;;;;5011577;28;20069;-46
2022/08/05 05:17:53;;;;;;;9.23;5.13;;;16.00;99.90;;;;;;5013514;28;20073;-48
2022/08/05 05:20:19;;;;;;;8.88;4.97;;;16.10;99.90;;;;;;5014389;28;20662;-48
2022/08/05 05:22:44;;;;;;;8.65;5.00;;;17.50;99.90;;;;;;5013870;28;20072;-50
2022/08/05 05:25:11;;;;;;;7.85;4.50;;;16.10;99.90;;;;;;5012335;28;20033;-48
2022/08/05 05:27:37;;;;;;;7.90;4.75;;;16.00;99.90;;;;;;5013975;28;20095;-49
2022/08/05 05:30:04;;;;;;;9.65;5.07;;;16.00;99.90;;;;;;5014402;28;20835;-48
2022/08/05 05:32:30;;;;;;;5.93;4.35;;;16.00;99.90;;;;;;5015679;28;20202;-45
2022/08/05 05:34:55;;;;;;;6.97;4.95;;;16.10;99.90;;;;;;5012576;28;20041;-50
2022/08/05 05:37:21;;;;;;;7.35;4.53;;;16.90;99.90;;;;;;5013175;28;20040;-48
2022/08/05 05:39:47;;;;;;;7.95;4.70;;;16.20;99.90;;;;;;5013088;28;21306;-46
2022/08/05 05:42:13;;;;;;;7.57;4.45;;;16.00;99.90;;;;;;5014173;28;20122;-45
2022/08/05 05:44:38;;;;;;;8.02;4.28;;;15.90;99.90;;;;;;5014439;28;20049;-46
2022/08/05 05:47:04;;;;;;;8.90;4.40;;;16.40;99.90;;;;;;5013971;28;20075;-45
2022/08/05 05:49:30;;;;;;;9.38;4.78;;;16.10;99.90;;;;;;5014341;28;20042;-48
2022/08/05 05:51:56;;;;;;;8.93;4.45;;;16.30;99.90;;;;;;5015189;28;20037;-47
2022/08/05 05:54:21;;;;;;;9.13;4.40;;;16.80;99.90;;;;;;5015172;28;20037;-45
2022/08/05 05:56:47;;;;;;;4.70;3.88;;;17.10;99.90;;;;;;5014294;28;20033;-46
2022/08/05 05:59:14;;;;;;;7.90;4.95;;;16.10;99.90;;;;;;5014119;28;20486;-48
2022/08/05 06:01:41;;;;;;;8.40;4.88;;;16.10;99.90;;;;;;5014557;28;20038;-47
2022/08/05 06:04:10;;;;;;;8.13;4.70;;;17.00;99.90;;;;;;5014330;28;20045;-49
2022/08/05 06:06:36;;;;;;;10.75;4.47;;;16.20;99.90;;;;;;5013337;28;20168;-49
2022/08/05 06:09:05;;;;;;;9.05;4.15;;;16.70;99.90;;;;;;5014615;28;20117;-47
2022/08/05 06:11:32;;;;;;;7.65;4.03;;;16.90;99.90;;;;;;4996235;28;20414;-46
2022/08/05 06:13:59;;;;;;;6.82;3.35;;;17.40;99.90;;;;;;4994369;28;20041;-48
2022/08/05 06:16:25;;;;;;;5.40;2.70;;;17.90;99.90;;;;;;5011941;28;20060;-47
2022/08/05 06:18:54;;;;;;;5.85;2.60;;;20.30;99.90;;;;;;4995045;28;20138;-46
2022/08/05 06:21:20;;;;;;;7.38;2.88;;;20.30;99.90;;;;;;5012683;28;20580;-47
2022/08/05 06:23:45;;;;;;;7.22;2.30;;;18.90;99.90;;;;;;4996360;28;20103;-46
2022/08/05 06:26:13;;;;;;;6.13;1.73;;;19.00;99.90;;;;;;5011590;28;20041;-47
2022/08/05 06:28:39;;;;;;;7.47;2.88;;;19.00;99.90;;;;;;5010922;28;20343;-45
2022/08/05 06:31:05;;;;;;;5.53;2.00;;;19.10;99.90;;;;;;5011079;28;20030;-46
2022/08/05 06:33:31;;;;;;;7.30;2.00;;;19.40;99.90;;;;;;5012469;28;20056;-49
2022/08/05 06:35:56;;;;;;;6.68;2.20;;;19.80;99.00;;;;;;5012132;28;20045;-47
2022/08/05 06:38:22;;;;;;;3.90;1.20;;;19.70;96.80;;;;;;5011482;28;20038;-46
2022/08/05 06:40:49;;;;;;;3.50;1.00;;;19.90;94.00;;;;;;5011415;28;20037;-48
2022/08/05 06:43:15;;;;;;;5.00;1.13;;;20.10;87.70;;;;;;5010803;28;20041;-45
2022/08/05 06:45:41;;;;;;;5.05;1.17;;;20.10;81.40;;;;;;5011120;28;20045;-49
2022/08/05 06:48:07;;;;;;;4.88;1.10;;;20.30;74.10;;;;;;5011838;28;20378;-45
2022/08/05 06:50:32;;;;;;;5.50;0.80;;;20.30;66.40;;;;;;5011075;28;20045;-47
2022/08/05 06:52:58;;;;;;;3.42;0.93;;;21.00;71.70;;;;;;5012553;28;20034;-45
2022/08/05 06:55:25;;;;;;;4.13;1.10;;;20.10;72.70;;;;;;5013277;28;20049;-49
2022/08/05 06:57:51;;;;;;;2.75;0.90;;;20.40;76.20;;;;;;5014124;28;20045;-45
2022/08/05 07:00:17;;;;;;;5.53;0.80;;;21.40;67.20;;;;;;5013351;28;20072;-50
2022/08/05 07:02:44;;;;;;;5.22;0.90;;;22.30;26.90;;;;;;5014287;28;20090;-50
2022/08/05 07:05:10;;;;;;;3.70;0.85;;;22.90;1.00;;;;;;4996078;28;20041;-49
2022/08/05 07:07:37;;;;;;;3.63;0.85;;;23.60;1.00;;;;;;5014134;28;21392;-47
2022/08/05 07:10:03;;;;;;;2.85;0.95;;;24.00;1.00;;;;;;5014069;28;20423;-50
2022/08/05 07:17:59;;;;;;;4.97;1.08;;;25.70;99.90;;;;;;5011540;28;20049;-51
2022/08/05 07:20:26;;;;;;;4.10;1.00;;;26.60;99.90;;;;;;4994307;28;20409;-49
2022/08/05 07:22:52;;;;;;;3.22;0.75;;;27.40;99.90;;;;;;5011834;28;20121;-49
2022/08/05 07:25:18;;;;;;;2.83;0.80;;;27.60;99.90;;;;;;5013793;28;20317;-48
2022/08/05 07:27:43;;;;;;;4.82;1.17;;;28.50;99.90;;;;;;5012900;28;20468;-47
2022/08/05 07:30:09;;;;;;;5.72;0.90;;;29.00;99.90;;;;;;5013884;28;20087;-50
2022/08/05 07:32:36;;;;;;;5.93;0.90;;;28.80;99.90;;;;;;5012814;28;20116;-48
2022/08/05 07:35:06;;;;;;;2.55;0.73;;;28.30;99.90;;;;;;5010307;28;20088;-46
2022/08/05 07:37:32;;;;;;;3.28;0.70;;;27.30;99.90;;;;;;4993202;28;20056;-49
2022/08/05 07:39:58;;;;;;;3.78;0.70;;;26.40;99.90;;;;;;5009696;28;20045;-49
2022/08/05 07:42:25;;;;;;;3.30;0.60;;;25.90;99.90;;;;;;5012849;28;20111;-49
2022/08/05 07:44:51;;;;;;;4.57;0.90;;;25.50;99.90;;;;;;5013801;28;20314;-49
2022/08/05 07:47:17;;;;;;;3.00;0.70;;;25.40;99.90;;;;;;5012011;28;20128;-47
2022/08/05 07:49:44;;;;;;;3.22;0.73;;;25.70;99.90;;;;;;5012688;28;20245;-48
2022/08/05 07:52:10;;;;;;;3.80;1.02;;;24.30;99.90;;;;;;5012652;28;20069;-49
2022/08/05 07:54:35;;;;;;;3.80;0.98;;;25.30;99.90;;;;;;5014314;28;20133;-48
2022/08/05 07:57:02;;;;;;;2.70;0.63;;;24.90;99.90;;;;;;4995831;28;20052;-47
2022/08/05 07:59:28;;;;;;;1.60;0.52;;;24.70;99.90;;;;;;5012632;28;20068;-50
2022/08/05 08:01:53;;;;;;;3.17;0.73;;;24.30;99.90;;;;;;5012937;28;20113;-47
2022/08/05 08:04:19;;;;;;;4.15;1.10;;;24.50;99.90;;;;;;5015114;28;20041;-47
2022/08/05 08:06:45;;;;;;;2.97;0.70;;;24.60;99.90;;;;;;5014968;28;20042;-49
2022/08/05 08:09:11;;;;;;;2.33;0.60;;;24.40;99.90;;;;;;4998211;28;20052;-51
2022/08/05 08:11:36;;;;;;;6.15;0.88;;;24.00;99.90;;;;;;5014937;28;20034;-49
2022/08/05 08:14:02;;;;;;;4.78;0.70;;;23.40;99.90;;;;;;5016940;28;20045;-48
2022/08/05 08:16:28;;;;;;;3.88;0.85;;;22.60;99.90;;;;;;5016308;28;20057;-48
2022/08/05 08:18:54;;;;;;;5.03;0.82;;;22.20;99.90;;;;;;5016115;28;20038;-48
2022/08/05 08:21:19;;;;;;;4.95;1.05;;;21.80;99.90;;;;;;5016012;28;20541;-50
2022/08/05 08:23:45;;;;;;;5.18;1.05;;;21.90;99.90;;;;;;5016892;28;20102;-46
2022/08/05 08:26:13;;;;;;;4.32;0.70;;;21.90;59.70;;;;;;5016007;28;20041;-51
2022/08/05 08:28:38;;;;;;;3.10;0.70;;;21.60;99.90;;;;;;5017037;28;20080;-50
2022/08/05 08:31:05;;;;;;;6.35;0.75;;;21.70;99.90;;;;;;5017353;28;20080;-50
2022/08/05 08:33:33;;;;;;;4.57;0.80;;;21.60;99.90;;;;;;5017316;28;20127;-48
2022/08/05 08:35:59;;;;;;;3.17;0.50;;;21.60;99.90;;;;;;5016859;28;20041;-48
2022/08/05 08:38:24;;;;;;;2.60;0.70;;;21.80;99.90;;;;;;5016250;28;20041;-47
2022/08/05 08:40:50;;;;;;;2.90;0.65;;;22.20;99.90;;;;;;5015669;28;20497;-49
2022/08/05 08:43:18;;;;;;;1.77;0.50;;;22.50;99.90;;;;;;5016023;28;20041;-48
2022/08/05 08:45:48;;;;;;;3.45;0.93;;;23.70;99.90;;;;;;5015673;28;20088;-48
2022/08/05 08:48:15;;;;;;;5.43;0.47;;;21.90;99.90;;;;;;5015410;28;20680;-46
2022/08/05 08:50:42;;;;;;;3.65;0.60;;;21.50;99.90;;;;;;5016290;28;20103;-51
2022/08/05 08:53:10;;;;;;;3.78;0.50;;;21.40;99.90;;;;;;5013885;28;20041;-48
2022/08/05 08:55:37;;;;;;;2.88;0.60;;;23.20;99.90;;;;;;5014020;28;20046;-50
2022/08/05 08:58:06;;;;;;;2.97;0.60;;;21.10;99.90;;;;;;4995764;28;20041;-47
2022/08/05 09:00:32;;;;;;;5.95;1.08;;;21.20;99.90;;;;;;5014363;28;20117;-45
2022/08/05 09:02:59;;;;;;;4.60;0.60;;;21.30;99.90;;;;;;4998090;28;20141;-49
2022/08/05 09:05:25;;;;;;;1.27;0.50;;;21.80;99.90;;;;;;5014857;28;20041;-49
2022/08/05 09:07:55;;;;;;;1.20;0.43;;;21.00;99.90;;;;;;5015311;28;20037;-47
2022/08/05 09:10:21;;;;;;;2.47;0.60;;;21.20;99.90;;;;;;5015490;28;20095;-50
2022/08/05 09:12:48;;;;;;;2.22;0.70;;;21.70;99.90;;;;;;5014516;28;20067;-47
2022/08/05 09:15:13;;;;;;;2.03;0.60;;;22.40;99.90;;;;;;5013006;28;20060;-46
2022/08/05 09:17:40;;;;;;;3.80;0.73;;;23.20;99.90;;;;;;5015089;28;20097;-46
2022/08/05 09:20:08;;;;;;;4.00;0.52;;;23.70;99.90;;;;;;5012952;28;20045;-48
2022/08/05 09:23:01;;;;;;;2.30;0.47;;;24.00;99.90;;;;;;5014758;28;20045;-48
2022/08/05 09:25:27;;;;;;;2.33;0.52;;;24.20;99.90;;;;;;5014005;28;20549;-49
2022/08/05 09:27:53;;;;;;;4.30;0.63;;;24.20;99.90;;;;;;5012691;28;20041;-48
2022/08/05 09:30:19;;;;;;;2.97;0.85;;;24.40;99.90;;;;;;5013315;28;20081;-51
2022/08/05 09:32:44;;;;;;;2.42;0.68;;;24.50;99.90;;;;;;4996744;28;20091;-50
2022/08/05 09:35:15;;;;;;;3.70;0.52;;;24.20;99.90;;;;;;5014191;28;20045;-49
2022/08/05 09:37:51;;;;;;;3.60;0.68;;;23.40;99.90;;;;;;5012797;28;20534;-48
2022/08/05 09:40:31;;;;;;;2.72;0.50;;;25.20;99.90;;;;;;5014437;28;20609;-50
2022/08/05 09:42:57;;;;;;;2.33;0.45;;;22.80;99.90;;;;;;5012609;28;20076;-48
2022/08/05 09:45:40;;;;;;;1.98;0.43;;;23.00;99.90;;;;;;5012023;28;20120;-49
2022/08/05 09:48:30;;;;;;;2.40;0.50;;;22.90;99.90;;;;;;5013819;28;20112;-51
2022/08/05 09:50:57;;;;;;;3.35;0.57;;;22.70;99.90;;;;;;5013867;28;20057;-48
2022/08/05 09:53:23;;;;;;;3.53;0.40;;;22.90;99.90;;;;;;5012058;28;20045;-49
2022/08/05 09:55:59;;;;;;;2.35;0.60;;;22.70;99.90;;;;;;5012769;28;20120;-49
2022/08/05 09:58:26;;;;;;;5.30;0.70;;;22.50;99.90;;;;;;5012941;28;20073;-47
2022/08/05 10:00:59;;;;;;;2.15;0.50;;;23.20;99.90;;;;;;5012932;28;20092;-49
2022/08/05 10:03:25;;;;;;;2.92;0.50;;;22.30;99.90;;;;;;5014093;28;20045;-48
2022/08/05 10:06:08;;;;;;;3.13;0.40;;;22.70;99.90;;;;;;5013411;28;20045;-49
2022/08/05 10:08:38;;;;;;;1.77;0.40;;;22.90;99.90;;;;;;5014415;28;20052;-48
2022/08/05 10:11:15;;;;;;;1.38;0.40;;;23.10;99.90;;;;;;5013859;28;20575;-50
2022/08/05 10:13:42;;;;;;;5.00;0.50;;;22.90;99.90;;;;;;5013256;28;20041;-46
2022/08/05 10:16:32;;;;;;;2.20;0.40;;;22.80;99.90;;;;;;5015281;28;20065;-49
2022/08/05 10:18:59;;;;;;;1.42;0.17;;;23.20;99.90;;;;;;5013672;28;20087;-49
2022/08/05 10:21:26;;;;;;;3.42;0.30;;;23.50;99.90;;;;;;5013635;28;20041;-50
2022/08/05 10:23:53;;;;;;;3.03;0.40;;;23.60;99.90;;;;;;5012413;28;20928;-49
2022/08/05 10:26:21;;;;;;;0.73;0.40;;;23.50;99.90;;;;;;5011072;28;20053;-49
2022/08/05 10:28:47;;;;;;;2.90;0.40;;;23.60;99.90;;;;;;5013062;28;20132;-49
2022/08/05 10:31:15;;;;;;;0.93;0.30;;;23.80;99.90;;;;;;5013105;28;20041;-48
2022/08/05 10:33:41;;;;;;;1.08;0.20;;;23.90;99.90;;;;;;5013600;28;20068;-45
2022/08/05 10:36:07;;;;;;;3.47;0.30;;;23.90;99.90;;;;;;5011101;28;20068;-45
2022/08/05 10:38:35;;;;;;;1.52;0.20;;;23.90;99.90;;;;;;5011403;28;20033;-46
2022/08/05 10:41:40;;;;;;;1.88;0.40;;;23.90;99.80;;;;;;5011080;28;20048;-47
2022/08/05 10:44:09;;;;;;;0.85;0.20;;;24.10;97.30;;;;;;5011209;28;20045;-46
2022/08/05 10:46:42;;;;;;;1.02;0.30;;;24.30;98.50;;;;;;5012609;28;20045;-48
2022/08/05 10:49:08;;;;;;;1.15;0.30;;;24.00;98.80;;;;;;5009879;28;20521;-49
2022/08/05 10:51:58;;;;;;;1.70;0.30;;;24.00;98.50;;;;;;5011108;28;20033;-49
2022/08/05 10:54:45;;;;;;;0.90;0.28;;;24.00;98.90;;;;;;5012723;28;20076;-44
2022/08/05 10:57:24;;;;;;;4.30;0.40;;;24.10;98.90;;;;;;5012342;28;20795;-45
2022/08/05 11:00:14;;;;;;;4.55;0.40;;;24.20;98.20;;;;;;5011723;28;20037;-49
2022/08/05 11:03:02;;;;;;;2.33;0.38;;;24.50;98.40;;;;;;5011960;28;20041;-48
2022/08/05 11:05:29;;;;;;;3.38;0.77;;;24.30;98.40;;;;;;4952312;28;20046;-50
2022/08/05 11:08:09;;;;;;;1.60;0.50;;;24.30;98.70;;;;;;4952285;28;20087;-46
2022/08/05 11:10:36;;;;;;;2.90;0.30;;;24.60;99.40;;;;;;4936671;28;20113;-54
2022/08/05 11:13:04;;;;;;;1.55;0.30;;;24.50;98.90;;;;;;4952292;28;20113;-46
2022/08/05 11:15:39;;;;;;;2.38;0.50;;;24.70;99.10;;;;;;4952575;28;20058;-48
2022/08/05 11:18:27;;;;;;;2.95;0.93;;;24.40;98.00;;;;;;4935174;28;20113;-46
2022/08/05 11:20:53;;;;;;;1.30;0.50;;;24.30;98.50;;;;;;4951000;28;20650;-45
2022/08/05 11:23:48;;;;;;;1.95;0.45;;;24.20;98.60;;;;;;4952993;28;20061;-46
2022/08/05 11:26:21;;;;;;;4.22;0.60;;;24.30;98.90;;;;;;4951333;28;20102;-46
2022/08/05 11:28:51;;;;;;;1.88;0.40;;;23.90;99.90;;;;;;4950337;28;20046;-46
2022/08/05 11:31:18;;;;;;;1.27;0.40;;;23.60;99.90;;;;;;4936762;28;20043;-48
2022/08/05 11:33:56;;;;;;;2.20;0.30;;;23.70;99.50;;;;;;4953357;28;20034;-45
2022/08/05 11:36:46;;;;;;;3.22;0.32;;;23.40;99.00;;;;;;4951709;28;20133;-48
2022/08/05 11:39:13;;;;;;;2.72;0.32;;;23.20;99.30;;;;;;4954787;28;20961;-45
2022/08/05 11:41:41;;;;;;;10.15;1.85;;;23.10;99.90;;;;;;4962728;28;20587;-47
2022/08/05 11:44:11;;;;;;;5.07;0.75;;;22.60;99.90;;;;;;5015910;28;20061;-46
2022/08/05 11:46:52;;;;;;;3.05;0.70;;;22.80;99.90;;;;;;5015670;28;20041;-45
2022/08/05 11:49:20;;;;;;;3.75;0.82;;;22.20;99.90;;;;;;5015541;28;20068;-47
2022/08/05 11:51:49;;;;;;;2.55;0.50;;;22.00;99.90;;;;;;5015851;28;20041;-47
2022/08/05 11:54:27;;;;;;;3.65;0.93;;;21.80;99.90;;;;;;5015179;28;20129;-46
2022/08/05 11:56:55;;;;;;;1.77;0.30;;;21.70;99.90;;;;;;5015418;28;20397;-44
2022/08/05 11:59:27;;;;;;;4.45;0.63;;;21.80;99.90;;;;;;5015310;28;20317;-45
2022/08/05 12:01:58;;;;;;;4.18;0.40;;;21.90;99.90;;;;;;5015116;28;20076;-44
2022/08/05 12:04:25;;;;;;;3.83;0.77;;;22.10;99.90;;;;;;4999293;28;20556;-46
2022/08/05 12:06:51;;;;;;;1.52;0.30;;;22.60;99.90;;;;;;5016111;28;20502;-45
2022/08/05 12:09:22;;;;;;;2.63;0.50;;;20.80;99.90;;;;;;5016306;28;20041;-44
2022/08/05 12:11:48;;;;;;;0.95;0.30;;;22.70;99.90;;;;;;5016796;28;20045;-48
2022/08/05 12:14:13;;;;;;;4.25;0.50;;;22.60;99.90;;;;;;5015892;28;20029;-47
2022/08/05 12:16:41;;;;;;;2.72;0.60;;;22.60;99.90;;;;;;5015140;28;20097;-46
2022/08/05 12:19:10;;;;;;;3.03;0.60;;;24.90;99.90;;;;;;5015679;28;20053;-45
2022/08/05 12:21:45;;;;;;;2.78;0.40;;;23.90;99.90;;;;;;5016455;28;20046;-47
2022/08/05 12:24:14;;;;;;;3.15;0.82;;;22.20;99.90;;;;;;5015530;28;20045;-50
2022/08/05 12:26:43;;;;;;;8.63;0.65;;;22.40;99.90;;;;;;5016253;28;20052;-44
2022/08/05 12:29:33;;;;;;;2.05;0.60;;;22.10;99.90;;;;;;5014537;28;20052;-47
2022/08/05 12:32:00;;;;;;;0.82;0.30;;;22.10;99.90;;;;;;5013881;28;20042;-50
2022/08/05 12:34:33;;;;;;;3.55;0.35;;;22.40;99.90;;;;;;5016571;28;20052;-49
2022/08/05 12:37:09;;;;;;;1.90;0.40;;;22.70;99.90;;;;;;5014470;28;20041;-45
2022/08/05 12:39:35;;;;;;;3.55;0.70;;;22.70;99.90;;;;;;5015823;28;20120;-49
2022/08/05 12:42:02;;;;;;;1.60;0.47;;;22.70;99.90;;;;;;5015843;28;20457;-50
2022/08/05 12:44:27;;;;;;;5.03;0.40;;;22.60;99.90;;;;;;5014603;28;20072;-47
2022/08/05 12:46:54;;;;;;;3.13;0.52;;;22.80;99.90;;;;;;5014142;28;20127;-47
2022/08/05 12:49:22;;;;;;;3.13;0.30;;;22.80;99.90;;;;;;5014139;28;20505;-45
2022/08/05 12:51:52;;;;;;;7.68;1.20;;;22.80;99.90;;;;;;5014551;28;20030;-47
2022/08/05 12:54:26;;;;;;;4.00;0.52;;;22.60;99.90;;;;;;5013954;28;20509;-47
2022/08/05 12:56:54;;;;;;;3.33;0.60;;;22.20;99.90;;;;;;5013764;28;20072;-45
2022/08/05 12:59:22;;;;;;;7.28;0.80;;;21.90;99.90;;;;;;5013706;28;20095;-44